Ontonagon, MI

4:39 PM EST on December 27, 2014 (GMT -0500)
APRSWXNET Silver City MI US | Change Station
CLOSE
Current Station
Personal Weather Station
Location: White Pine, MI
Elevation: 634 ft
Nearby Weather Stations

Elev 634 ft 46.83 °N, 89.57 °W | Updated 43 minutes ago

Overcast
Overcast
29 °F
Feels Like 23 °F
N
6
Wind Variable Wind from NW
Gusts 0.0 mph

Today
High -- | Low -- °F
--% Chance of Precip.
Yesterday
High -- | Low -- °F
Precip. -- in
8:41 AM 5:15 PM
Waxing Crescent, 40% visible
Pressure 29.93 in
Visibility 6.0 miles
Clouds Overcast 500 ft
Windchill 23 °F
Dew Point 26 °F
Humidity 90%
Rainfall -999.00 in
Snow Depth Not available.
UV 0 out of 12
Pollen .10 out of 12
Air Quality Not available.
Flu Activity Not available.
METAR KIWD 272135Z AUTO 26011KT 6SM OVC005 M05/M06 A2993 RMK AO1

More Conditions Fewer Conditions

Pressure 29.93 in
Visibility 6.0 miles
Clouds Overcast 500 ft
Windchill 23 °F
Dew Point 26 °F
Humidity 90%
Rainfall -999.00 in
Snow Depth Not available.
UV 0 out of 12
Pollen .10 out of 12
Air Quality Not available.
Flu Activity Not available.
METAR KIWD 272135Z AUTO 26011KT 6SM OVC005 M05/M06 A2993 RMK AO1

More Conditions Fewer Conditions

10-Day Weather Forecast

Almanac

Astronomy

Dec. 27, 2014 Rise Set
Actual Time
Civil Twilight
Nautical Twilight
Astronomical Twilight
Moon
Length of Visible Light
Length of Day
Tomorrow will be .
, % of the Moon is Illuminated

Today's Extremes

State Highs State Lows

Community

WunderPhotos

Upload Photos

1,781,073 photos uploaded!

WunderBlogs® & News

Nearby

Air Quality

  Air Quality AQ Index Pollutant
Not available.

Snow Depth

Station Depth Elevation

Earthquake Activity

City Distance Mag. Time & Date
Minimum magnitude displayed is 2.5.

Coastal Water Temperatures

Place Temperature

Nearby Weather Stations